EZY31ND LEPA-EGGD
Flight info
| Callsign | EZY31ND |
|---|---|
| Flight time | N/A |
| Altitude | 34000 |
| Route | DRAGO DCT PAPOS DCT UMURE DCT XIKEN DCT KARES DCT ARBEK DCT REBUL DCT USKAR DCT MOPAS DCT GIROM DCT GONUP DCT MANAK DCT MUREL DCT NOZHU DCT SHIRI DCT TOJAQ |
| Aircraft | A320/M-SDE2E3FGHIJ1RWXYZ/LB1 |
Departure
| Time | 2026-05-03 20:22 |
|---|---|
| Airport | Palma de Mallorca Airport (LEPA) |
Arrival
| Time | N/A |
|---|---|
| Airport | Bristol Airport (EGGD) |
| Time | Latitude | Longitude | Altitude | Speed | Heading |
|---|---|---|---|---|---|
| 2026-05-03 20:15 | 39.55094 | 2.72712 | 29 ft | 0 kts | 58° |
| 2026-05-03 20:16 | 39.55097 | 2.72717 | 29 ft | 3 kts | 58° |
| 2026-05-03 20:16 | 39.55115 | 2.72754 | 29 ft | 5 kts | 58° |
| 2026-05-03 20:16 | 39.55139 | 2.72802 | 29 ft | 6 kts | 58° |
| 2026-05-03 20:17 | 39.55173 | 2.72873 | 30 ft | 12 kts | 58° |
| 2026-05-03 20:17 | 39.55214 | 2.72962 | 29 ft | 13 kts | 59° |
| 2026-05-03 20:17 | 39.55266 | 2.73071 | 29 ft | 14 kts | 58° |
| 2026-05-03 20:17 | 39.55317 | 2.73178 | 29 ft | 15 kts | 58° |
| 2026-05-03 20:18 | 39.55371 | 2.73291 | 29 ft | 15 kts | 58° |
| 2026-05-03 20:18 | 39.55423 | 2.73399 | 29 ft | 15 kts | 58° |
| 2026-05-03 20:18 | 39.55476 | 2.73510 | 29 ft | 15 kts | 57° |
| 2026-05-03 20:18 | 39.55561 | 2.73540 | 29 ft | 14 kts | 327° |
| 2026-05-03 20:19 | 39.55653 | 2.73516 | 29 ft | 14 kts | 30° |
| 2026-05-03 20:19 | 39.55709 | 2.73615 | 29 ft | 14 kts | 58° |
| 2026-05-03 20:19 | 39.55760 | 2.73724 | 29 ft | 14 kts | 58° |
| 2026-05-03 20:19 | 39.55814 | 2.73836 | 29 ft | 14 kts | 58° |
| 2026-05-03 20:20 | 39.55863 | 2.73938 | 29 ft | 14 kts | 59° |
| 2026-05-03 20:20 | 39.55918 | 2.74056 | 29 ft | 14 kts | 59° |
| 2026-05-03 20:20 | 39.55971 | 2.74168 | 29 ft | 14 kts | 58° |
| 2026-05-03 20:20 | 39.56031 | 2.74258 | 30 ft | 14 kts | 34° |
| 2026-05-03 20:21 | 39.56103 | 2.74317 | 29 ft | 14 kts | 31° |
| 2026-05-03 20:21 | 39.56192 | 2.74362 | 30 ft | 14 kts | 352° |
| 2026-05-03 20:21 | 39.56231 | 2.74279 | 29 ft | 13 kts | 232° |
| 2026-05-03 20:21 | 39.56131 | 2.74067 | 30 ft | 59 kts | 239° |
| 2026-05-03 20:22 | 39.55810 | 2.73387 | 30 ft | 122 kts | 238° |
| 2026-05-03 20:22 | 39.55290 | 2.72289 | 79 ft | 172 kts | 239° |
| 2026-05-03 20:22 | 39.54704 | 2.71070 | 659 ft | 176 kts | 238° |
| 2026-05-03 20:22 | 39.54047 | 2.69761 | 1489 ft | 176 kts | 238° |
| 2026-05-03 20:23 | 39.53418 | 2.68522 | 2142 ft | 180 kts | 237° |
| 2026-05-03 20:23 | 39.52754 | 2.67220 | 2558 ft | 195 kts | 238° |
| 2026-05-03 20:23 | 39.52043 | 2.65821 | 2972 ft | 210 kts | 238° |
| 2026-05-03 20:23 | 39.51234 | 2.64226 | 3451 ft | 225 kts | 238° |
| 2026-05-03 20:24 | 39.50395 | 2.62569 | 4008 ft | 236 kts | 238° |
| 2026-05-03 20:24 | 39.49486 | 2.60781 | 4878 ft | 234 kts | 238° |
| 2026-05-03 20:24 | 39.48641 | 2.59119 | 5677 ft | 232 kts | 238° |
| 2026-05-03 20:24 | 39.47829 | 2.57519 | 6398 ft | 234 kts | 239° |
| 2026-05-03 20:25 | 39.46919 | 2.55725 | 7182 ft | 236 kts | 239° |
| 2026-05-03 20:25 | 39.46053 | 2.54020 | 7893 ft | 239 kts | 239° |
| 2026-05-03 20:25 | 39.45262 | 2.52326 | 8376 ft | 250 kts | 250° |
| 2026-05-03 20:25 | 39.45017 | 2.50189 | 8746 ft | 263 kts | 281° |
| 2026-05-03 20:26 | 39.45680 | 2.48141 | 9140 ft | 276 kts | 311° |
| 2026-05-03 20:26 | 39.47127 | 2.46616 | 9829 ft | 281 kts | 327° |
| 2026-05-03 20:26 | 39.48663 | 2.45301 | 10539 ft | 286 kts | 326° |
| 2026-05-03 20:26 | 39.50286 | 2.43876 | 10934 ft | 302 kts | 325° |
| 2026-05-03 20:27 | 39.52001 | 2.42343 | 11379 ft | 315 kts | 325° |
| 2026-05-03 20:27 | 39.53666 | 2.40809 | 12051 ft | 318 kts | 322° |
| 2026-05-03 20:27 | 39.55320 | 2.39047 | 12787 ft | 321 kts | 317° |
| 2026-05-03 20:27 | 39.56867 | 2.37106 | 13485 ft | 323 kts | 314° |
| 2026-05-03 20:28 | 39.58364 | 2.35081 | 14164 ft | 327 kts | 313° |
| 2026-05-03 20:28 | 39.59769 | 2.33150 | 14791 ft | 330 kts | 313° |
| 2026-05-03 20:28 | 39.61308 | 2.31029 | 15460 ft | 333 kts | 313° |
| 2026-05-03 20:28 | 39.62914 | 2.28817 | 16137 ft | 336 kts | 313° |
| 2026-05-03 20:29 | 39.64247 | 2.26986 | 16681 ft | 339 kts | 313° |
| 2026-05-03 20:29 | 39.65807 | 2.24847 | 17300 ft | 342 kts | 313° |
| 2026-05-03 20:29 | 39.67405 | 2.22657 | 17915 ft | 345 kts | 313° |
| 2026-05-03 20:29 | 39.69001 | 2.20470 | 18506 ft | 348 kts | 313° |
| 2026-05-03 20:30 | 39.70585 | 2.18299 | 19075 ft | 351 kts | 313° |
| 2026-05-03 20:30 | 39.72127 | 2.16184 | 19616 ft | 354 kts | 313° |
| 2026-05-03 20:30 | 39.73762 | 2.13942 | 20175 ft | 357 kts | 313° |
| 2026-05-03 20:30 | 39.75413 | 2.11674 | 20718 ft | 360 kts | 313° |
| 2026-05-03 20:31 | 39.77027 | 2.09457 | 21235 ft | 362 kts | 313° |
| 2026-05-03 20:31 | 39.78691 | 2.07170 | 21753 ft | 365 kts | 313° |
| 2026-05-03 20:31 | 39.80171 | 2.05133 | 22201 ft | 368 kts | 313° |
| 2026-05-03 20:31 | 39.81843 | 2.02831 | 22694 ft | 370 kts | 313° |
| 2026-05-03 20:32 | 39.83544 | 2.00487 | 23180 ft | 373 kts | 313° |
| 2026-05-03 20:32 | 39.85201 | 1.98201 | 23640 ft | 376 kts | 313° |
| 2026-05-03 20:32 | 39.86859 | 1.95913 | 24086 ft | 378 kts | 313° |
| 2026-05-03 20:32 | 39.88608 | 1.93496 | 24538 ft | 381 kts | 312° |
| 2026-05-03 20:33 | 39.90289 | 1.91172 | 24960 ft | 383 kts | 312° |
| 2026-05-03 20:33 | 39.92102 | 1.88663 | 25402 ft | 386 kts | 312° |
| 2026-05-03 20:33 | 39.93941 | 1.86123 | 25833 ft | 388 kts | 314° |
| 2026-05-03 20:33 | 39.96089 | 1.84003 | 26188 ft | 394 kts | 332° |
| 2026-05-03 20:34 | 39.98399 | 1.82672 | 26612 ft | 396 kts | 336° |
| 2026-05-03 20:34 | 40.00870 | 1.81406 | 26997 ft | 399 kts | 337° |
| 2026-05-03 20:34 | 40.03352 | 1.80129 | 27352 ft | 401 kts | 336° |
| 2026-05-03 20:34 | 40.05856 | 1.78808 | 27712 ft | 404 kts | 336° |
| 2026-05-03 20:35 | 40.08393 | 1.77443 | 28070 ft | 406 kts | 336° |
| 2026-05-03 20:35 | 40.10930 | 1.76059 | 28424 ft | 408 kts | 336° |
| 2026-05-03 20:35 | 40.13292 | 1.74765 | 28740 ft | 410 kts | 335° |
| 2026-05-03 20:35 | 40.15820 | 1.73373 | 29075 ft | 412 kts | 335° |
| 2026-05-03 20:36 | 40.18417 | 1.71935 | 29409 ft | 414 kts | 335° |
| 2026-05-03 20:36 | 40.20771 | 1.70626 | 29702 ft | 416 kts | 335° |
| 2026-05-03 20:36 | 40.23451 | 1.69131 | 30023 ft | 418 kts | 335° |
| 2026-05-03 20:36 | 40.25810 | 1.67813 | 30295 ft | 420 kts | 335° |
| 2026-05-03 20:37 | 40.28138 | 1.66510 | 30560 ft | 422 kts | 335° |
| 2026-05-03 20:37 | 40.30767 | 1.65036 | 30874 ft | 423 kts | 335° |
| 2026-05-03 20:37 | 40.33363 | 1.63580 | 31244 ft | 422 kts | 335° |
| 2026-05-03 20:37 | 40.35828 | 1.62196 | 31610 ft | 421 kts | 335° |
| 2026-05-03 20:38 | 40.38476 | 1.60708 | 31990 ft | 420 kts | 335° |
| 2026-05-03 20:38 | 40.41128 | 1.59215 | 32351 ft | 419 kts | 335° |
| 2026-05-03 20:38 | 40.43637 | 1.57802 | 32672 ft | 419 kts | 335° |
| 2026-05-03 20:38 | 40.46089 | 1.56418 | 32981 ft | 418 kts | 335° |
| 2026-05-03 20:39 | 40.48548 | 1.55030 | 33284 ft | 417 kts | 335° |
| 2026-05-03 20:39 | 40.50965 | 1.53666 | 33562 ft | 417 kts | 335° |
| 2026-05-03 20:39 | 40.53513 | 1.52226 | 33852 ft | 416 kts | 335° |
| 2026-05-03 20:39 | 40.55890 | 1.50881 | 34117 ft | 416 kts | 335° |
| 2026-05-03 20:40 | 40.58362 | 1.49481 | 34371 ft | 416 kts | 335° |
| 2026-05-03 20:40 | 40.60650 | 1.48184 | 34565 ft | 416 kts | 335° |
| 2026-05-03 20:40 | 40.63186 | 1.46746 | 34765 ft | 417 kts | 335° |
| 2026-05-03 20:40 | 40.65761 | 1.45283 | 34949 ft | 418 kts | 335° |
| 2026-05-03 20:41 | 40.68333 | 1.43822 | 35142 ft | 419 kts | 335° |
| 2026-05-03 20:41 | 40.70827 | 1.42404 | 35326 ft | 420 kts | 335° |
| 2026-05-03 20:41 | 40.73250 | 1.41025 | 35492 ft | 420 kts | 335° |
| 2026-05-03 20:41 | 40.75896 | 1.39519 | 35662 ft | 421 kts | 335° |
| 2026-05-03 20:42 | 40.78331 | 1.38131 | 35817 ft | 422 kts | 335° |
| 2026-05-03 20:42 | 40.80844 | 1.36697 | 35978 ft | 422 kts | 335° |
| 2026-05-03 20:42 | 40.83584 | 1.35133 | 36013 ft | 424 kts | 335° |
| 2026-05-03 20:43 | 40.88657 | 1.32212 | 36026 ft | 423 kts | 334° |
| 2026-05-03 20:43 | 40.93705 | 1.29304 | 36029 ft | 423 kts | 334° |
| 2026-05-03 20:44 | 40.98489 | 1.26556 | 36030 ft | 423 kts | 334° |
| 2026-05-03 20:44 | 41.03450 | 1.23714 | 36032 ft | 419 kts | 333° |
| 2026-05-03 20:45 | 41.08651 | 1.21185 | 36033 ft | 420 kts | 342° |
| 2026-05-03 20:45 | 41.14124 | 1.19819 | 36031 ft | 418 kts | 344° |
| 2026-05-03 20:46 | 41.19514 | 1.18633 | 36028 ft | 421 kts | 348° |
| 2026-05-03 20:46 | 41.24937 | 1.17872 | 36029 ft | 421 kts | 347° |
| 2026-05-03 20:47 | 41.30351 | 1.16876 | 36028 ft | 422 kts | 346° |
| 2026-05-03 20:47 | 41.35852 | 1.15845 | 36029 ft | 422 kts | 346° |
| 2026-05-03 20:48 | 41.41598 | 1.14780 | 36029 ft | 423 kts | 346° |
| 2026-05-03 20:48 | 41.47121 | 1.13760 | 36028 ft | 423 kts | 346° |
| 2026-05-03 20:49 | 41.52734 | 1.12725 | 36029 ft | 424 kts | 346° |
| 2026-05-03 20:49 | 41.58233 | 1.11709 | 36027 ft | 425 kts | 346° |
| 2026-05-03 20:50 | 41.63047 | 1.10818 | 36025 ft | 425 kts | 346° |
| 2026-05-03 20:50 | 41.66530 | 1.10174 | 36025 ft | 426 kts | 346° |
| 2026-05-03 20:51 | 41.74127 | 1.08767 | 36021 ft | 427 kts | 346° |
| 2026-05-03 20:51 | 41.79993 | 1.07676 | 36019 ft | 427 kts | 347° |
| 2026-05-03 20:52 | 41.85930 | 1.06571 | 36016 ft | 428 kts | 347° |
| 2026-05-03 20:52 | 41.91837 | 1.05468 | 36012 ft | 429 kts | 347° |
| 2026-05-03 20:53 | 41.97783 | 1.04357 | 36007 ft | 429 kts | 347° |
| 2026-05-03 20:53 | 42.03714 | 1.03246 | 36005 ft | 430 kts | 347° |
| 2026-05-03 20:54 | 42.09664 | 1.02130 | 36005 ft | 431 kts | 347° |
| 2026-05-03 20:54 | 42.18601 | 1.00460 | 36004 ft | 432 kts | 347° |
| 2026-05-03 20:55 | 42.24577 | 0.99337 | 36004 ft | 433 kts | 347° |
| 2026-05-03 20:55 | 42.30566 | 0.98208 | 36004 ft | 433 kts | 347° |
| 2026-05-03 20:56 | 42.36550 | 0.97076 | 36005 ft | 434 kts | 347° |
| 2026-05-03 20:56 | 42.42576 | 0.95934 | 36004 ft | 435 kts | 347° |
| 2026-05-03 20:57 | 42.48582 | 0.94794 | 36004 ft | 435 kts | 347° |
| 2026-05-03 20:57 | 42.54615 | 0.93645 | 36005 ft | 435 kts | 347° |
| 2026-05-03 20:58 | 42.60625 | 0.92500 | 36005 ft | 435 kts | 347° |
| 2026-05-03 20:58 | 42.66649 | 0.91349 | 36004 ft | 436 kts | 347° |
| 2026-05-03 20:59 | 42.72654 | 0.90200 | 36004 ft | 435 kts | 347° |
| 2026-05-03 20:59 | 42.78680 | 0.89044 | 36003 ft | 435 kts | 347° |
| 2026-05-03 21:00 | 42.83650 | 0.88088 | 36001 ft | 436 kts | 347° |
| 2026-05-03 21:00 | 42.90694 | 0.86736 | 36001 ft | 435 kts | 346° |
| 2026-05-03 21:01 | 42.96675 | 0.85597 | 35999 ft | 433 kts | 345° |
| 2026-05-03 21:01 | 43.02644 | 0.84450 | 35998 ft | 431 kts | 343° |
| 2026-05-03 21:02 | 43.08591 | 0.83290 | 35996 ft | 428 kts | 343° |
| 2026-05-03 21:02 | 43.14439 | 0.82146 | 35994 ft | 427 kts | 343° |
| 2026-05-03 21:03 | 43.20353 | 0.80996 | 35992 ft | 428 kts | 343° |
| 2026-05-03 21:03 | 43.26255 | 0.79844 | 35992 ft | 428 kts | 343° |
| 2026-05-03 21:04 | 43.32155 | 0.78686 | 35994 ft | 427 kts | 343° |
| 2026-05-03 21:04 | 43.38081 | 0.77524 | 36000 ft | 427 kts | 343° |
| 2026-05-03 21:05 | 43.43865 | 0.76126 | 36005 ft | 421 kts | 338° |
| 2026-05-03 21:05 | 43.49445 | 0.73880 | 36008 ft | 414 kts | 331° |
| 2026-05-03 21:06 | 43.54779 | 0.70901 | 36010 ft | 411 kts | 328° |
| 2026-05-03 21:06 | 43.60020 | 0.67627 | 36010 ft | 417 kts | 326° |
| 2026-05-03 21:07 | 43.65231 | 0.64187 | 36010 ft | 425 kts | 326° |
| 2026-05-03 21:07 | 43.70607 | 0.60635 | 36009 ft | 431 kts | 326° |
| 2026-05-03 21:08 | 43.76073 | 0.57021 | 36011 ft | 436 kts | 327° |
| 2026-05-03 21:08 | 43.81554 | 0.53396 | 36010 ft | 436 kts | 327° |
| 2026-05-03 21:09 | 43.86980 | 0.49800 | 36009 ft | 436 kts | 327° |
| 2026-05-03 21:09 | 43.92481 | 0.46144 | 36009 ft | 436 kts | 327° |
| 2026-05-03 21:10 | 43.97942 | 0.42507 | 36010 ft | 436 kts | 327° |
| 2026-05-03 21:10 | 44.03399 | 0.38865 | 36009 ft | 436 kts | 327° |
| 2026-05-03 21:11 | 44.08859 | 0.35213 | 36009 ft | 436 kts | 327° |
| 2026-05-03 21:11 | 44.14277 | 0.31576 | 36010 ft | 436 kts | 326° |
| 2026-05-03 21:12 | 44.19694 | 0.27939 | 36010 ft | 436 kts | 326° |
| 2026-05-03 21:12 | 44.25198 | 0.24238 | 36010 ft | 435 kts | 326° |
| 2026-05-03 21:13 | 44.30640 | 0.20567 | 36010 ft | 435 kts | 326° |
| 2026-05-03 21:13 | 44.36109 | 0.16870 | 36010 ft | 435 kts | 326° |
| 2026-05-03 21:14 | 44.41545 | 0.13190 | 36011 ft | 436 kts | 326° |
| 2026-05-03 21:14 | 44.46991 | 0.09494 | 36010 ft | 435 kts | 326° |
| 2026-05-03 21:15 | 44.52404 | 0.05814 | 36010 ft | 435 kts | 326° |
| 2026-05-03 21:15 | 44.57847 | 0.02105 | 36009 ft | 435 kts | 326° |
| 2026-05-03 21:16 | 44.63242 | -0.01579 | 36010 ft | 436 kts | 326° |
| 2026-05-03 21:16 | 44.68680 | -0.05300 | 36008 ft | 435 kts | 326° |
| 2026-05-03 21:17 | 44.73206 | -0.08404 | 36011 ft | 435 kts | 326° |
| 2026-05-03 21:17 | 44.79534 | -0.12751 | 36009 ft | 436 kts | 326° |
| 2026-05-03 21:18 | 44.84945 | -0.16477 | 36008 ft | 436 kts | 326° |
| 2026-05-03 21:18 | 44.90414 | -0.20250 | 36011 ft | 436 kts | 326° |
| 2026-05-03 21:19 | 44.95809 | -0.23981 | 36009 ft | 436 kts | 326° |
| 2026-05-03 21:19 | 45.01236 | -0.27745 | 36007 ft | 437 kts | 326° |
| 2026-05-03 21:20 | 45.06669 | -0.31523 | 36008 ft | 440 kts | 326° |
| 2026-05-03 21:20 | 45.12178 | -0.35353 | 36007 ft | 443 kts | 327° |
| 2026-05-03 21:21 | 45.17650 | -0.39142 | 36010 ft | 444 kts | 327° |
| 2026-05-03 21:21 | 45.23176 | -0.42986 | 36009 ft | 444 kts | 327° |
| 2026-05-03 21:22 | 45.28316 | -0.46578 | 36010 ft | 443 kts | 327° |
| 2026-05-03 21:22 | 45.33583 | -0.50272 | 36010 ft | 444 kts | 327° |
| 2026-05-03 21:23 | 45.39040 | -0.54109 | 36010 ft | 444 kts | 327° |
| 2026-05-03 21:23 | 45.44235 | -0.57770 | 36010 ft | 444 kts | 327° |
| 2026-05-03 21:24 | 45.49513 | -0.61498 | 36011 ft | 444 kts | 327° |
| 2026-05-03 21:24 | 45.54974 | -0.65363 | 36011 ft | 444 kts | 326° |
| 2026-05-03 21:25 | 45.60223 | -0.69112 | 36011 ft | 445 kts | 326° |
| 2026-05-03 21:25 | 45.65694 | -0.73025 | 36009 ft | 449 kts | 326° |
| 2026-05-03 21:26 | 45.71062 | -0.76855 | 36009 ft | 449 kts | 326° |
| 2026-05-03 21:26 | 45.76469 | -0.80615 | 36005 ft | 453 kts | 330° |
| 2026-05-03 21:27 | 45.82145 | -0.83767 | 36002 ft | 455 kts | 332° |
| 2026-05-03 21:27 | 45.87954 | -0.86894 | 35997 ft | 455 kts | 332° |
| 2026-05-03 21:28 | 45.93624 | -0.89990 | 35993 ft | 455 kts | 332° |
| 2026-05-03 21:28 | 45.98915 | -0.92906 | 35988 ft | 455 kts | 332° |
| 2026-05-03 21:29 | 46.04637 | -0.96076 | 35984 ft | 454 kts | 332° |
| 2026-05-03 21:29 | 46.10202 | -0.99170 | 35980 ft | 454 kts | 332° |
| 2026-05-03 21:30 | 46.12359 | -1.00367 | 35979 ft | 454 kts | 332° |